Station: Delamere

  Atmospheric Gas Attenuation - ITU Rec 676-11   --------------- db/100km ---------------
Date Time Temp RH % AH g/m3 Dew Point Wind Direction Speed kph Gust kph Barometer mB Rainfall Since 9am 24GHz 47GHz 76GHz 122GHz 134GHz 241GHz
07 07:00 16.6 27 3.81 -2.5 2 6 1012.9 0 9.4 18.3 21.6 55.8 39.3 131.4
07 06:50 17.2 26 3.81 -2.4 6 6 1013.7 0 9.3 18.2 21.4 55.4 39.1 130.5
07 06:40 17.3 26 3.83 -2.4 9 11 1013.3 0 9.4 18.2 21.5 55.5 39.2 131.1
07 06:30 17.5 25 3.73 -2.7 11 15 1012.1 0 9.2 18.0 21.1 54.4 38.0 127.0
07 06:20 17.8 25 3.79 -2.5 13 15 1012.9 0 9.3 18.0 21.2 54.8 38.5 128.8
07 06:10 18 25 3.84 -2.3 13 15 1012.8 0 9.4 18.0 21.3 55.1 39.0 130.3
07 06:00 18.1 25 3.86 -2.2 15 19 1011.8 0 9.4 18.0 21.3 55.1 39.1 130.7
07 05:50 18.4 25 3.93 -2 13 17 1012.8 0 9.6 18.1 21.5 55.6 39.7 132.9
07 05:40 18.2 26 4.04 -1.6 11 13 1012.7 0 9.8 18.2 21.9 56.6 40.9 137.3
07 05:30 18.1 26 4.02 -1.7 9 13 1011.7 0 9.8 18.2 21.8 56.4 40.7 136.6
07 05:20 18 26 3.99 -1.8 7 9 1012.6 0 9.7 18.2 21.8 56.3 40.5 135.7
07 05:10 18.4 26 4.09 -1.4 6 6 1012.4 0 9.9 18.3 22.0 56.9 41.3 138.7
07 04:50 19 25 4.07 -1.4 9 13 1012.2 0 9.8 18.1 21.8 56.3 40.8 137.0
07 04:40 19.1 25 4.1 -1.4 9 13 1012.1 0 9.9 18.1 21.8 56.5 41.1 137.9
07 04:30 19 26 4.24 -0.9 13 17 1011 0 10.2 18.3 22.2 57.6 42.5 143.0
07 04:20 19.1 27 4.43 -0.3 9 11 1012.2 0 10.6 18.6 22.9 59.2 44.5 150.0
07 04:10 18.7 28 4.48 -0.2 6 6 1012.1 0 10.7 18.7 23.1 59.9 45.2 152.5
07 04:00 18.7 29 4.64 0.3 9 15 1010.9 0 11.0 18.9 23.6 61.2 46.9 158.3
07 03:50 18.8 29 4.67 0.4 9 11 1011.8 0 11.1 18.9 23.7 61.5 47.2 159.4
07 03:40 19 30 4.89 1.1 0 0 1011.8 0 11.5 19.2 24.3 63.2 49.4 167.2
07 03:30 19.5 28 4.7 0.5 6 7 1010.6 0 11.1 18.8 23.5 61.1 47.0 159.0
07 03:20 19.5 29 4.87 1 6 7 1011.6 0 11.5 19.0 24.1 62.6 48.9 165.4
07 03:10 19.5 29 4.87 1 7 9 1011.5 0 11.5 19.0 24.1 62.6 48.9 165.4
07 03:00 19.8 29 4.95 1.3 6 9 1010.5 0 11.6 19.0 24.3 63.0 49.5 167.6
07 02:50 20 29 5.01 1.4 6 7 1011.5 0 11.8 19.1 24.4 63.4 50.1 169.6
07 02:40 20.3 29 5.1 1.7 7 9 1011.5 0 11.9 19.2 24.6 64.0 50.8 172.3
07 02:30 20.4 30 5.31 2.3 13 17 1010.3 0 12.4 19.4 25.2 65.6 52.9 179.8
07 02:20 20.6 30 5.37 2.4 13 15 1011.4 0 12.5 19.4 25.4 66.1 53.5 181.8
07 02:10 20.8 31 5.61 3.1 11 11 1011.4 0 13.0 19.7 26.1 68.0 55.9 190.3
07 02:00 21 32 5.86 3.7 11 15 1010.5 0 13.5 20.0 26.8 69.9 58.4 199.2
07 01:50 21.2 32 5.93 3.9 9 11 1011.4 0 13.6 20.1 27.0 70.4 59.1 201.5
07 01:40 21.2 33 6.12 4.3 11 13 1011.5 0 14.0 20.3 27.6 72.1 61.1 208.8
07 01:30 21 34 6.23 4.6 7 9 1010.5 0 14.3 20.5 28.0 73.2 62.4 213.3
07 01:20 21.3 34 6.34 4.8 9 11 1011.6 0 14.5 20.6 28.3 74.0 63.5 217.0
07 01:10 21.6 33 6.26 4.7 9 11 1011.6 0 14.3 20.4 28.0 73.0 62.4 213.1
07 01:00 21.9 33 6.37 4.9 9 13 1010.6 0 14.5 20.5 28.2 73.6 63.3 216.4
07 00:50 22.3 33 6.52 5.3 9 11 1011.6 0 14.8 20.6 28.6 74.7 64.7 221.2
07 00:40 22.4 33 6.55 5.4 11 11 1011.6 0 14.9 20.6 28.7 74.8 64.9 222.1
07 00:30 21.6 35 6.64 5.5 6 9 1010.6 0 15.1 20.9 29.2 76.3 66.5 227.6
07 00:20 22 35 6.79 5.8 6 7 1011.5 0 15.4 21.0 29.6 77.3 67.9 232.4
07 00:10 22.2 34 6.67 5.6 7 7 1011.5 0 15.2 20.8 29.1 76.1 66.4 227.2
07 00:00 22.6 34 6.83 6 7 11 1010.5 0 15.5 20.9 29.5 77.0 67.7 232.1
06 23:50 23 34 6.99 6.3 7 9 1011.6 0 15.8 21.1 29.9 78.2 69.2 237.3
06 23:40 22.9 35 7.15 6.6 9 11 1011.6 0 16.1 21.3 30.5 79.7 71.1 243.8
06 23:30 22.8 36 7.31 7 7 11 1010.7 0 16.5 21.5 31.0 81.2 72.9 250.2
06 23:20 22.9 36 7.36 7 7 9 1011.7 0 16.6 21.6 31.2 81.6 73.4 252.0
06 23:10 23.1 36 7.44 7.2 7 9 1011.7 0 16.7 21.7 31.4 82.1 74.1 254.6
06 23:00 23.5 36 7.61 7.6 9 11 1010.7 0 17.1 21.8 31.8 83.2 75.6 259.7
06 22:50 23.8 36 7.74 7.8 9 11 1011.6 0 17.3 21.9 32.1 84.1 76.8 264.1
06 22:40 24 37 8.05 8.4 9 13 1011.5 0 18.0 22.3 33.1 86.7 80.1 275.6
06 22:30 23.8 38 8.17 8.6 9 11 1010.5 0 18.2 22.5 33.6 88.0 81.6 280.8
06 22:20 23.9 39 8.44 9.1 9 9 1011.4 0 18.8 22.9 34.5 90.4 84.6 291.5
06 22:10 24 39 8.48 9.2 7 9 1011.4 0 18.9 22.9 34.6 90.7 85.0 292.7
06 22:00 24.4 39 8.68 9.6 9 11 1010.3 0 19.3 23.1 35.1 92.0 86.7 299.0
06 21:50 24.3 40 8.85 9.8 9 9 1011.2 0 19.6 23.3 35.7 93.8 88.9 306.5
06 21:40 24.4 40 8.9 9.9 6 7 1011.2 0 19.7 23.4 35.9 94.1 89.3 308.1
06 21:30 24.8 40 9.1 10.3 7 9 1010.2 0 20.1 23.5 36.4 95.4 91.1 314.4
06 21:20 25.1 39 9.03 10.2 7 9 1011.1 0 20.0 23.4 36.0 94.5 90.1 310.7
06 21:10 25.3 39 9.13 10.4 6 7 1011 0 20.2 23.5 36.3 95.2 91.0 313.9
06 21:00 25.6 38 9.05 10.2 7 11 1009.8 0 20.0 23.3 35.8 94.0 89.6 309.2
06 20:50 25.8 38 9.15 10.4 7 9 1010.8 0 20.2 23.4 36.1 94.8 90.6 312.7
06 20:40 26.1 38 9.3 10.7 9 11 1010.6 0 20.5 23.5 36.5 95.8 92.0 317.5
06 20:30 26.4 37 9.21 10.5 7 11 1009.4 0 20.3 23.3 36.0 94.5 90.5 312.5
06 20:20 26.4 37 9.21 10.5 7 9 1010.4 0 20.3 23.3 36.0 94.6 90.6 312.7
06 20:10 26.5 36 9.01 10.2 6 7 1010.3 0 19.9 23.0 35.3 92.7 88.2 304.4
06 20:00 26.9 35 8.96 10.2 2 6 1009.1 0 19.7 22.8 34.9 91.7 87.1 300.6
06 19:50 27.2 35 9.11 10.4 4 6 1010.1 0 20.0 22.9 35.3 92.8 88.6 305.7
06 19:40 27.6 34 9.05 10.3 6 7 1010 0 19.9 22.8 35.0 91.8 87.4 301.8
06 19:30 27.8 34 9.15 10.5 9 11 1008.8 0 20.1 22.8 35.2 92.3 88.3 304.7
06 19:20 28.1 34 9.3 10.8 11 13 1009.8 0 20.4 23.0 35.6 93.4 89.7 309.6
06 19:10 28.3 33 9.12 10.5 7 9 1009.7 0 20.0 22.7 34.9 91.6 87.4 301.9
06 19:00 28.7 32 9.04 10.4 7 11 1008.4 0 19.8 22.4 34.4 90.3 86.0 297.0
06 18:50 29.1 29 8.38 9.3 7 9 1009.3 0 18.4 21.5 32.1 84.2 78.6 270.9
06 18:40 29.4 28 8.22 9 9 11 1009.1 0 18.1 21.2 31.5 82.5 76.6 263.9
06 18:30 29.8 28 8.4 9.3 13 20 1008.1 0 18.4 21.3 31.9 83.6 78.0 269.1
06 18:20 30.1 27 8.23 9.1 15 20 1008.9 0 18.1 21.1 31.2 81.9 76.0 262.0
06 18:10 30.5 27 8.41 9.4 17 20 1008.8 0 18.4 21.2 31.7 83.0 77.5 267.3
06 18:00 30.7 26 8.19 9 17 26 1007.7 0 18.0 20.8 30.8 80.9 75.0 258.4
06 17:50 31 25 8 8.7 15 20 1008.6 0 17.6 20.6 30.2 79.1 72.8 250.8
06 17:40 31.3 25 8.13 8.9 13 17 1008.5 0 17.8 20.6 30.5 79.9 73.9 254.6
06 17:30 31.4 25 8.18 9 13 22 1007.5 0 17.9 20.7 30.6 80.1 74.2 255.9
06 17:20 31.4 25 8.18 9 19 20 1008.4 0 17.9 20.7 30.6 80.2 74.3 256.1
06 17:10 31.8 23 7.68 8.1 11 13 1008.3 0 16.9 20.0 28.9 75.7 68.9 237.1
06 17:00 32 23 7.77 8.3 19 33 1007.2 0 17.1 20.0 29.1 76.1 69.5 239.5
06 16:50 32.2 22 7.51 7.8 20 24 1008 0 16.5 19.7 28.2 73.9 66.8 229.9
06 16:40 31.7 22 7.31 7.4 13 17 1008 0 16.1 19.5 27.8 72.8 65.2 224.3
06 16:30 31.9 21 7.05 6.9 17 26 1007 0 15.6 19.1 26.9 70.4 62.5 214.6
06 16:20 32.3 23 7.89 8.5 15 20 1008 0 17.3 20.1 29.4 76.9 70.5 243.0
06 16:10 32.1 22 7.47 7.7 19 24 1008 0 16.4 19.6 28.2 73.7 66.5 228.8
06 16:00 31.6 23 7.6 8 20 32 1007 0 16.7 19.9 28.7 75.1 68.2 234.6
06 15:50 32.2 23 7.85 8.4 17 22 1008 0 17.2 20.1 29.3 76.7 70.2 241.9
06 15:40 31.1 26 8.37 9.3 19 22 1008.2 0 18.3 21.0 31.3 82.0 76.5 263.8
06 15:30 31.8 24 8.02 8.7 17 28 1007.1 0 17.6 20.4 29.9 78.4 72.2 248.9
06 15:20 31.6 24 7.93 8.6 22 26 1008.2 0 17.4 20.3 29.7 77.9 71.6 246.5
06 15:10 32.2 25 8.53 9.7 17 19 1008.2 0 18.6 20.9 31.4 82.3 77.1 266.2
06 15:00 31.3 25 8.13 8.9 20 32 1007.4 0 17.8 20.6 30.4 79.8 73.8 254.4
06 14:50 31.3 26 8.46 9.5 22 32 1008.5 0 18.5 21.1 31.5 82.6 77.3 266.5
06 14:40 31 31 9.92 11.9 13 20 1008.6 0 21.5 23.1 36.4 95.6 93.1 322.2
06 14:30 30.8 30 9.5 11.2 19 32 1007.6 0 20.7 22.5 35.0 92.0 88.7 306.7
06 14:20 31 32 10.24 12.4 19 22 1008.8 0 22.2 23.5 37.4 98.4 96.7 334.5

Last Refresh: 07-Aug-2020 07:16:05

Most of the information presented on this site is sourced from the Bureau of Meteorology.  Copyright in all material sourced from the Bureau of Meteorology resides with the Commonwealth of Australia.